Time;durP1;ratioP1;P1;durP2;ratioP2;P2;SDS_P1;SDS_P2;PMS_P1;PMS_P2;Temp;Humidity;BMP_temperature;BMP_pressure;BME280_temperature;BME280_humidity;BME280_pressure;Samples;Min_cycle;Max_cycle;Signal;HPM_P1;HPM_P2
2021/04/01 00:01:50;;;;;;;4.18;2.67;;;;;;;19.47;67.24;102073.50;5005422;28;20472;-66
2021/04/01 00:04:15;;;;;;;5.82;3.15;;;;;;;19.47;67.11;102078.00;5012219;28;20412;-66
2021/04/01 00:06:41;;;;;;;5.13;2.90;;;;;;;19.45;67.46;102073.66;5029171;28;20041;-65
2021/04/01 00:09:07;;;;;;;5.40;2.95;;;;;;;19.45;67.61;102076.34;5028106;28;20040;-66
2021/04/01 00:11:33;;;;;;;5.22;2.90;;;;;;;19.45;67.37;102072.84;5046666;28;20353;-65
2021/04/01 00:14:01;;;;;;;5.07;2.92;;;;;;;19.45;67.29;102079.00;5039821;28;20033;-66
2021/04/01 00:16:27;;;;;;;4.38;3.10;;;;;;;19.44;67.35;102074.66;5034216;28;20038;-66
2021/04/01 00:18:53;;;;;;;3.72;2.70;;;;;;;19.45;67.35;102070.19;5045673;28;20553;-66
2021/04/01 00:21:18;;;;;;;4.13;2.55;;;;;;;19.44;67.33;102077.34;5027514;28;20028;-65
2021/04/01 00:23:44;;;;;;;4.57;2.90;;;;;;;19.44;67.28;102073.84;5021857;28;20042;-65
2021/04/01 00:26:09;;;;;;;4.43;2.70;;;;;;;19.45;67.16;102075.50;5029405;28;20037;-65
2021/04/01 00:28:35;;;;;;;4.35;2.75;;;;;;;19.43;67.17;102075.66;5030088;28;20403;-65
2021/04/01 00:31:01;;;;;;;4.70;2.55;;;;;;;19.43;67.02;102085.47;5023106;28;20040;-65
2021/04/01 00:33:27;;;;;;;4.15;2.50;;;;;;;19.43;67.44;102081.00;5051777;28;20082;-66
2021/04/01 00:35:52;;;;;;;4.78;2.72;;;;;;;19.44;67.52;102087.97;5043957;28;20434;-66
2021/04/01 00:38:18;;;;;;;4.50;3.10;;;;;;;19.44;67.26;102089.81;5032018;28;20048;-66
2021/04/01 00:40:43;;;;;;;5.38;2.95;;;;;;;19.43;67.43;102090.81;5010462;28;20057;-65
2021/04/01 00:43:09;;;;;;;4.97;2.75;;;;;;;19.42;67.08;102086.47;5044100;28;20033;-66
2021/04/01 00:45:34;;;;;;;3.80;2.55;;;;;;;19.44;67.20;102089.81;5046008;28;20044;-65
2021/04/01 00:48:00;;;;;;;4.47;2.75;;;;;;;19.43;66.79;102102.28;5033882;28;20037;-66
2021/04/01 00:50:28;;;;;;;5.80;3.05;;;;;;;19.43;67.52;102107.59;5050206;28;20119;-65
2021/04/01 00:52:54;;;;;;;3.60;2.75;;;;;;;19.43;67.27;102107.59;5051469;28;20129;-65
2021/04/01 00:55:20;;;;;;;3.38;2.50;;;;;;;19.44;67.20;102114.59;5050192;28;20341;-65
2021/04/01 00:57:49;;;;;;;4.15;2.42;;;;;;;19.43;67.29;102117.41;5032760;28;20086;-65
2021/04/01 01:00:18;;;;;;;4.10;3.05;;;;;;;19.41;67.40;102106.94;5050424;28;20041;-65
2021/04/01 01:02:43;;;;;;;3.97;2.90;;;;;;;19.43;67.23;102114.75;5051848;28;20039;-65
2021/04/01 01:05:12;;;;;;;4.53;2.83;;;;;;;19.42;67.59;102113.94;5050491;28;20135;-65
2021/04/01 01:07:37;;;;;;;4.25;2.50;;;;;;;19.43;67.27;102114.75;5032603;28;20032;-65
2021/04/01 01:10:18;;;;;;;3.78;2.65;;;;;;;19.39;67.23;102114.22;5050087;28;20114;-65
2021/04/01 01:12:44;;;;;;;5.90;2.88;;;;;;;19.42;67.13;102107.78;5047063;28;20036;-65
2021/04/01 01:15:12;;;;;;;3.85;2.30;;;;;;;19.42;67.29;102113.94;5034433;28;20480;-65
2021/04/01 01:17:38;;;;;;;3.78;2.70;;;;;;;19.41;67.41;102120.25;5030060;28;20128;-65
2021/04/01 01:20:06;;;;;;;3.55;2.50;;;;;;;19.41;67.14;102128.22;5036832;28;20116;-65
2021/04/01 01:22:34;;;;;;;4.35;2.83;;;;;;;19.43;67.21;102120.06;5018165;28;20491;-66
2021/04/01 01:25:00;;;;;;;3.92;2.63;;;;;;;19.42;67.09;102123.75;5042517;28;20037;-65
2021/04/01 01:27:25;;;;;;;3.60;2.40;;;;;;;19.43;67.05;102139.53;5032459;28;20029;-65
2021/04/01 01:29:51;;;;;;;4.22;2.75;;;;;;;19.41;67.38;102135.38;5047698;28;20132;-65
2021/04/01 01:32:18;;;;;;;3.70;2.40;;;;;;;19.41;67.36;102124.72;5005328;28;20374;-65
2021/04/01 01:34:45;;;;;;;3.20;2.50;;;;;;;19.41;67.39;102130.88;5048599;28;20475;-65
2021/04/01 01:37:11;;;;;;;3.83;2.60;;;;;;;19.42;67.41;102134.38;5044495;28;20052;-65
2021/04/01 01:39:37;;;;;;;3.70;2.65;;;;;;;19.41;67.09;102135.38;5027403;28;20064;-65
2021/04/01 01:42:03;;;;;;;3.67;2.63;;;;;;;19.41;67.46;102135.38;5042171;28;20153;-66
2021/04/01 01:44:30;;;;;;;5.03;2.70;;;;;;;19.41;67.21;102128.22;5044107;28;20041;-66
2021/04/01 01:46:56;;;;;;;3.80;2.50;;;;;;;19.42;67.27;102131.72;5046143;28;20476;-66
2021/04/01 01:49:22;;;;;;;5.30;2.80;;;;;;;19.42;66.90;102131.72;5049508;28;20453;-65
2021/04/01 01:51:47;;;;;;;6.60;2.70;;;;;;;19.42;66.92;102132.56;5032424;28;20048;-65
2021/04/01 01:54:13;;;;;;;4.25;2.35;;;;;;;19.41;67.01;102130.88;5043583;28;20070;-65
2021/04/01 01:56:38;;;;;;;5.25;2.38;;;;;;;19.41;66.91;102130.88;5024345;28;20040;-65
2021/04/01 01:59:05;;;;;;;4.57;2.22;;;;;;;19.41;66.83;102133.56;5015082;28;20116;-65
2021/04/01 02:01:30;;;;;;;4.97;2.47;;;;;;;19.41;66.63;102135.38;5050745;28;20501;-66
2021/04/01 02:04:02;;;;;;;3.53;2.63;;;;;;;19.40;66.64;102141.66;5030237;28;20041;-66
2021/04/01 02:06:29;;;;;;;4.10;2.50;;;;;;;19.40;66.83;102134.50;5030715;28;20029;-66
2021/04/01 02:08:56;;;;;;;4.57;3.35;;;;;;;19.40;67.03;102139.84;5048578;28;20110;-66
2021/04/01 02:11:22;;;;;;;3.58;2.60;;;;;;;19.40;66.70;102136.34;5032492;28;20029;-65
2021/04/01 02:13:47;;;;;;;4.28;2.22;;;;;;;19.40;67.13;102139.84;5041053;28;20039;-65
2021/04/01 02:16:13;;;;;;;4.22;2.45;;;;;;;19.40;66.63;102139.00;5048087;28;20064;-65
2021/04/01 02:18:39;;;;;;;4.20;2.47;;;;;;;19.40;66.65;102134.50;5043240;28;20043;-66
2021/04/01 02:21:04;;;;;;;3.67;2.40;;;;;;;19.40;66.72;102137.19;5049617;28;20037;-65
2021/04/01 02:23:32;;;;;;;4.07;2.50;;;;;;;19.40;66.93;102139.84;5030054;28;20494;-65
2021/04/01 02:25:59;;;;;;;4.82;2.50;;;;;;;19.41;66.58;102148.69;5040639;28;20048;-65
2021/04/01 02:28:28;;;;;;;2.97;2.05;;;;;;;19.39;66.65;102148.81;5047404;28;20048;-65
2021/04/01 02:30:56;;;;;;;3.88;2.33;;;;;;;19.39;66.92;102150.66;5049966;28;20494;-65
2021/04/01 02:33:24;;;;;;;4.03;2.50;;;;;;;19.39;66.86;102158.63;5044182;28;20980;-66
2021/04/01 02:35:50;;;;;;;4.90;2.55;;;;;;;19.38;66.75;102149.81;5031913;28;20071;-65
2021/04/01 02:38:16;;;;;;;4.15;2.47;;;;;;;19.38;66.55;102157.81;5046526;28;20460;-65
2021/04/01 02:40:42;;;;;;;4.43;2.70;;;;;;;19.39;66.65;102161.28;5047864;28;20052;-66
2021/04/01 02:43:10;;;;;;;3.42;2.40;;;;;;;19.39;66.61;102163.94;5012840;28;20498;-65
2021/04/01 02:45:35;;;;;;;4.20;2.58;;;;;;;19.38;66.51;102167.63;5028585;28;20080;-65
2021/04/01 02:48:01;;;;;;;4.40;2.55;;;;;;;19.39;66.68;102174.59;5025108;28;20042;-65
2021/04/01 02:50:27;;;;;;;3.08;2.05;;;;;;;19.39;66.89;102174.59;5040145;28;20170;-65
2021/04/01 02:52:52;;;;;;;3.70;2.50;;;;;;;19.39;66.57;102177.25;5048681;28;20474;-65
2021/04/01 02:55:19;;;;;;;4.90;2.40;;;;;;;19.39;66.46;102177.25;5029522;28;20414;-65
2021/04/01 02:57:45;;;;;;;5.68;2.42;;;;;;;19.38;66.79;102181.75;5030160;28;20484;-65
2021/04/01 03:00:15;;;;;;;3.10;2.30;;;;;;;19.38;66.67;102179.09;5042778;28;20048;-65
2021/04/01 03:02:48;;;;;;;4.28;2.40;;;;;;;19.38;66.83;102186.25;5049342;28;20117;-66
2021/04/01 03:05:13;;;;;;;3.47;2.28;;;;;;;19.38;66.61;102180.91;5031559;28;20151;-66
2021/04/01 03:07:40;;;;;;;4.80;2.28;;;;;;;19.38;66.39;102178.25;5046661;28;20116;-65
2021/04/01 03:10:11;;;;;;;4.78;2.35;;;;;;;19.37;66.68;102187.22;5031168;28;20037;-65
2021/04/01 03:12:37;;;;;;;4.50;2.50;;;;;;;19.38;66.26;102196.88;5048522;28;20040;-65
2021/04/01 03:15:04;;;;;;;3.38;2.17;;;;;;;19.38;66.20;102197.72;5010511;28;20114;-65
2021/04/01 03:17:30;;;;;;;3.85;2.15;;;;;;;19.37;66.47;102193.38;5044672;28;20392;-66
2021/04/01 03:19:56;;;;;;;4.43;2.25;;;;;;;19.37;66.11;102185.41;5031000;28;20045;-65
2021/04/01 03:22:21;;;;;;;4.57;2.30;;;;;;;19.37;66.35;102193.38;5029476;28;20468;-65
2021/04/01 03:24:47;;;;;;;5.53;2.50;;;;;;;19.37;66.22;102200.53;5047623;28;20107;-65
2021/04/01 03:27:12;;;;;;;5.10;2.58;;;;;;;19.37;66.35;102203.19;5026075;28;20153;-65
2021/04/01 03:29:37;;;;;;;3.92;2.30;;;;;;;19.35;66.25;102198.03;5012705;28;20073;-65
2021/04/01 03:32:03;;;;;;;5.63;2.35;;;;;;;19.36;66.40;102194.38;5031085;28;20036;-65
2021/04/01 03:34:29;;;;;;;4.75;2.10;;;;;;;19.37;66.23;102203.19;5046843;28;20037;-65
2021/04/01 03:36:55;;;;;;;4.70;2.10;;;;;;;19.36;66.21;102204.19;5012251;28;20051;-65
2021/04/01 03:39:21;;;;;;;3.72;2.08;;;;;;;19.37;66.29;102208.53;5029407;28;20098;-65
2021/04/01 03:41:46;;;;;;;4.18;2.33;;;;;;;19.36;66.53;102198.88;5046476;28;20053;-65
2021/04/01 03:44:12;;;;;;;4.20;2.53;;;;;;;19.36;66.09;102204.19;5028533;28;20032;-65
2021/04/01 03:46:37;;;;;;;4.00;2.40;;;;;;;19.36;66.29;102212.19;5018465;28;20063;-65
2021/04/01 03:49:06;;;;;;;4.13;2.08;;;;;;;19.35;66.04;102216.66;5046052;28;20086;-65
2021/04/01 03:51:32;;;;;;;4.72;2.22;;;;;;;19.36;66.18;102223.66;5033714;28;20084;-65
2021/04/01 03:53:57;;;;;;;3.50;2.17;;;;;;;19.37;65.95;102219.16;5009123;28;20462;-66
2021/04/01 03:56:23;;;;;;;4.72;2.55;;;;;;;19.35;66.22;102229.13;5041632;28;20083;-65
2021/04/01 04:12:06;;;;;;;4.45;2.13;;;;;;;19.32;65.87;102232.97;5032880;28;20147;-65
2021/04/01 04:15:20;;;;;;;3.88;2.00;;;;;;;19.33;65.86;102231.13;5017472;28;20037;-65
2021/04/01 04:17:17;;;;;;;4.18;2.38;;;;;;;19.33;66.06;102239.94;5029649;28;20076;-65
2021/04/01 04:19:42;;;;;;;4.63;2.42;;;;;;;19.33;65.88;102239.94;5035358;28;20139;-65
2021/04/01 04:22:09;;;;;;;4.95;2.10;;;;;;;19.33;65.83;102239.13;5038885;28;20041;-65
2021/04/01 04:24:36;;;;;;;4.65;2.10;;;;;;;19.34;65.81;102248.75;5026502;28;20037;-65
2021/04/01 04:27:18;;;;;;;3.90;2.20;;;;;;;19.33;65.91;102247.94;5030368;28;20040;-65
2021/04/01 04:29:44;;;;;;;4.53;2.50;;;;;;;19.33;65.63;102245.28;5002893;28;20064;-65
2021/04/01 04:32:09;;;;;;;3.97;2.50;;;;;;;19.33;65.82;102247.09;5047555;28;20033;-65
2021/04/01 04:34:35;;;;;;;3.95;2.20;;;;;;;19.32;65.83;102242.78;5046328;28;20086;-65
2021/04/01 04:37:00;;;;;;;5.60;2.15;;;;;;;19.34;65.49;102251.44;5028369;28;20039;-65
2021/04/01 04:39:26;;;;;;;4.47;2.30;;;;;;;19.32;65.60;102251.59;5029190;28;20037;-65
2021/04/01 04:41:51;;;;;;;4.38;2.15;;;;;;;19.32;65.37;102254.25;5028831;28;20057;-65
2021/04/01 04:44:17;;;;;;;3.47;1.98;;;;;;;19.33;65.63;102255.09;5046292;28;20041;-65
2021/04/01 04:46:42;;;;;;;4.10;2.15;;;;;;;19.33;65.49;102257.75;5046694;28;20040;-65
2021/04/01 04:49:08;;;;;;;4.03;2.03;;;;;;;19.32;65.43;102258.75;5047132;28;20049;-65
2021/04/01 04:51:33;;;;;;;4.90;2.42;;;;;;;19.32;65.68;102256.06;5026963;28;20033;-65
2021/04/01 04:53:59;;;;;;;4.43;2.20;;;;;;;19.31;65.72;102262.41;5047146;28;20029;-65
2021/04/01 04:56:25;;;;;;;3.88;2.08;;;;;;;19.30;65.77;102256.25;5046087;28;20476;-65
2021/04/01 05:06:54;;;;;;;4.93;1.90;;;;;;;19.31;65.34;102273.03;5034622;28;20043;-65
2021/04/01 05:09:20;;;;;;;4.22;1.90;;;;;;;19.30;65.36;102274.88;5042130;28;20112;-65
2021/04/01 05:11:45;;;;;;;4.13;2.17;;;;;;;19.30;65.57;102276.69;5040461;28;20032;-65
2021/04/01 05:14:11;;;;;;;3.88;1.80;;;;;;;19.30;65.87;102279.34;5027909;28;20037;-65
2021/04/01 05:16:36;;;;;;;4.82;2.45;;;;;;;19.30;65.71;102282.00;5038617;28;20088;-65
2021/04/01 05:19:07;;;;;;;4.05;2.17;;;;;;;19.29;65.43;102285.66;5020200;28;20110;-65
2021/04/01 05:21:45;;;;;;;6.50;2.53;;;;;;;19.29;65.33;102298.97;5048867;28;20036;-66
2021/04/01 05:24:11;;;;;;;3.58;1.83;;;;;;;19.28;65.38;102298.13;5046356;28;20025;-65
2021/04/01 05:29:16;;;;;;;5.40;2.30;;;;;;;19.29;65.30;102294.47;5049310;28;20047;-65
2021/04/01 05:31:42;;;;;;;3.80;2.08;;;;;;;19.29;65.22;102301.63;5033201;28;20033;-65
2021/04/01 05:34:10;;;;;;;4.43;2.38;;;;;;;19.29;65.50;102304.28;5049990;28;20121;-65
2021/04/01 05:36:39;;;;;;;4.63;2.22;;;;;;;19.28;65.46;102311.44;5048368;28;20535;-65
2021/04/01 05:39:09;;;;;;;3.22;1.77;;;;;;;19.28;65.48;102307.94;5032338;28;20061;-65
2021/04/01 05:41:34;;;;;;;3.45;1.80;;;;;;;19.28;65.18;102313.28;5029728;28;20084;-65
2021/04/01 05:44:11;;;;;;;3.30;1.63;;;;;;;19.28;65.35;102307.94;5031822;28;20422;-66
2021/04/01 05:46:41;;;;;;;3.20;2.05;;;;;;;19.27;65.07;102309.78;5046810;23;20049;-64
2021/04/01 06:03:12;;;;;;;4.53;1.95;;;;;;;19.28;65.10;102326.56;5045396;28;20056;-62
2021/04/01 06:05:53;;;;;;;2.97;1.73;;;;;;;19.27;64.96;102324.91;5027307;28;20052;-62
2021/04/01 06:08:25;;;;;;;3.05;1.83;;;;;;;19.26;65.35;102326.72;5003541;28;21095;-62
2021/04/01 06:10:51;;;;;;;3.45;1.70;;;;;;;19.26;64.85;102332.06;5042478;28;20115;-62
2021/04/01 06:13:19;;;;;;;3.13;1.90;;;;;;;19.26;65.03;102331.22;5039606;28;20526;-62
2021/04/01 06:15:47;;;;;;;3.55;2.03;;;;;;;19.25;65.22;102338.38;5046066;28;20389;-63
2021/04/01 06:18:19;;;;;;;3.70;2.05;;;;;;;19.26;64.84;102340.03;5024920;28;20075;-65
2021/04/01 06:20:47;;;;;;;3.25;1.83;;;;;;;19.26;64.97;102347.19;5038753;28;20025;-62
2021/04/01 06:23:22;;;;;;;4.13;1.95;;;;;;;19.25;65.02;102345.50;5041420;28;20088;-63
2021/04/01 06:25:50;;;;;;;5.53;1.75;;;;;;;19.25;64.82;102342.81;5031213;28;20040;-63
2021/04/01 06:28:21;;;;;;;2.80;1.60;;;;;;;19.25;65.03;102353.47;5030221;28;20087;-64
2021/04/01 06:30:51;;;;;;;4.13;1.77;;;;;;;19.25;64.71;102348.16;5029313;28;20452;-63
2021/04/01 06:33:24;;;;;;;3.80;1.73;;;;;;;19.24;64.78;102347.31;5046051;28;20083;-63
2021/04/01 06:36:03;;;;;;;3.67;2.00;;;;;;;19.24;64.80;102349.97;5048456;28;20036;-63
2021/04/01 06:38:35;;;;;;;4.15;1.70;;;;;;;19.23;64.53;102358.13;5045057;28;20029;-64
2021/04/01 06:41:05;;;;;;;4.25;1.60;;;;;;;19.25;64.78;102353.47;5043815;28;20033;-63
2021/04/01 06:43:55;;;;;;;3.15;1.90;;;;;;;19.22;64.81;102356.44;5044611;28;20037;-64
2021/04/01 06:46:24;;;;;;;3.30;1.85;;;;;;;19.23;64.64;102355.47;5048110;28;20052;-64
2021/04/01 06:51:30;;;;;;;2.20;1.38;;;;;;;19.24;64.81;102367.75;5048017;28;20043;-63
2021/04/01 07:03:10;;;;;;;5.38;1.85;;;;;;;19.22;64.64;102375.91;4975579;28;20098;-63
2021/04/01 07:08:19;;;;;;;5.13;1.98;;;;;;;19.22;65.37;102378.56;5046012;28;20033;-62
2021/04/01 07:13:48;;;;;;;5.75;2.20;;;;;;;19.23;65.57;102376.75;5029445;28;20463;-62
2021/04/01 07:16:40;;;;;;;7.40;2.03;;;;;;;19.22;65.90;102375.06;5045231;28;20059;-62
2021/04/01 07:35:54;;;;;;;5.50;2.08;;;;;;;19.24;66.28;102411.16;5043717;28;20070;-61
2021/04/01 07:46:48;;;;;;;8.80;1.95;;;;;;;19.27;66.55;102415.38;5034568;28;20039;-60
2021/04/01 07:49:17;;;;;;;12.35;2.38;;;;;;;19.26;66.01;102414.53;5046437;28;20036;-66
2021/04/01 07:54:25;;;;;;;8.40;2.45;;;;;;;19.27;66.00;102434.00;5039145;28;20029;-62
2021/04/01 07:57:26;;;;;;;12.25;2.72;;;;;;;19.26;66.33;102422.50;5047195;28;20107;-65
2021/04/01 07:59:57;;;;;;;8.73;3.05;;;;;;;19.27;66.61;102426.84;5042716;28;20471;-62
2021/04/01 08:04:53;;;;;;;14.10;2.72;;;;;;;19.29;66.30;102435.50;5043043;28;20044;-64
2021/04/01 08:07:21;;;;;;;12.90;3.03;;;;;;;19.28;66.31;102431.16;5024274;28;20175;-65
2021/04/01 08:09:53;;;;;;;10.13;2.67;;;;;;;19.28;66.65;102430.34;5038113;28;20061;-63
2021/04/01 08:12:27;;;;;;;15.82;3.72;;;;;;;19.29;66.40;102434.66;5044683;28;20126;-64
2021/04/01 08:15:09;;;;;;;12.88;2.97;;;;;;;19.28;66.57;102431.16;5036851;28;20140;-62
2021/04/01 08:20:31;;;;;;;13.95;3.30;;;;;;;19.28;66.18;102441.81;5014790;28;20056;-62
2021/04/01 08:23:04;;;;;;;10.30;2.95;;;;;;;19.28;66.31;102449.78;5019235;28;20045;-63
2021/04/01 08:25:37;;;;;;;11.13;3.13;;;;;;;19.29;66.62;102442.66;5029721;28;20393;-62
2021/04/01 08:36:21;;;;;;;14.88;3.30;;;;;;;19.26;65.88;102456.28;5043299;28;20067;-61
2021/04/01 08:38:47;;;;;;;8.75;3.13;;;;;;;19.26;65.90;102454.44;5038942;28;20064;-62
2021/04/01 08:41:26;;;;;;;18.02;4.32;;;;;;;19.25;65.74;102454.56;5045870;28;20033;-64
2021/04/01 08:44:12;;;;;;;10.48;3.53;;;;;;;19.24;65.58;102458.22;5039445;28;20110;-67
2021/04/01 08:46:53;;;;;;;13.60;3.33;;;;;;;19.25;65.70;102457.22;5042864;28;20123;-64
2021/04/01 08:49:30;;;;;;;11.45;3.90;;;;;;;19.25;65.05;102459.88;5043587;28;20041;-66
2021/04/01 08:52:02;;;;;;;9.00;3.88;;;;;;;19.24;64.95;102459.06;5032740;28;20036;-62
2021/04/01 08:54:41;;;;;;;15.32;3.80;;;;;;;19.22;64.72;102465.53;5047859;28;20060;-63
2021/04/01 08:57:15;;;;;;;14.00;4.03;;;;;;;19.23;65.00;102467.19;5032576;28;20108;-63
2021/04/01 08:59:47;;;;;;;10.35;3.33;;;;;;;19.22;64.68;102470.84;5032495;28;20036;-62
2021/04/01 09:02:17;;;;;;;11.70;3.92;;;;;;;19.23;64.94;102469.84;5032352;28;20140;-63
2021/04/01 09:04:48;;;;;;;10.05;3.60;;;;;;;19.21;64.46;102475.34;5050947;28;20167;-62
2021/04/01 09:07:22;;;;;;;12.18;3.80;;;;;;;19.22;64.59;102481.50;5045051;28;20119;-63
2021/04/01 09:09:51;;;;;;;12.60;3.87;;;;;;;19.23;64.11;102480.50;5028931;28;20464;-62
2021/04/01 09:12:26;;;;;;;11.70;3.65;;;;;;;19.22;64.18;102479.66;5044347;28;20879;-62
2021/04/01 09:15:22;;;;;;;16.98;3.90;;;;;;;19.19;64.14;102485.28;5039421;28;20029;-62
2021/04/01 09:17:48;;;;;;;13.65;3.45;;;;;;;19.22;64.19;102489.47;5045314;28;20086;-62
2021/04/01 09:20:19;;;;;;;11.60;3.65;;;;;;;19.21;64.17;102483.31;5044659;28;20037;-64
2021/04/01 09:22:50;;;;;;;9.68;4.55;;;;;;;19.22;64.67;102482.31;5045620;28;20079;-63
2021/04/01 09:25:16;;;;;;;14.27;3.55;;;;;;;19.21;64.40;102485.97;5025389;28;20542;-63
2021/04/01 09:27:59;;;;;;;7.45;3.08;;;;;;;19.20;64.23;102489.63;5043033;28;20036;-63
2021/04/01 09:30:25;;;;;;;11.68;3.90;;;;;;;19.22;64.26;102486.81;5037375;28;20029;-63
2021/04/01 09:32:53;;;;;;;12.75;3.60;;;;;;;19.22;64.31;102492.97;5045499;28;20048;-63
2021/04/01 09:35:20;;;;;;;14.27;3.22;;;;;;;19.22;64.35;102486.81;5044771;28;20036;-62
2021/04/01 09:37:57;;;;;;;12.82;3.75;;;;;;;19.22;64.38;102492.13;5043390;28;20036;-63
2021/04/01 09:40:40;;;;;;;9.07;3.75;;;;;;;19.21;64.23;102490.47;5045411;28;20047;-62
2021/04/01 09:43:13;;;;;;;11.07;3.50;;;;;;;19.22;63.98;102494.78;5043568;28;20044;-62
2021/04/01 09:45:39;;;;;;;11.52;3.65;;;;;;;19.22;64.00;102500.09;5034329;28;20037;-63
2021/04/01 09:48:05;;;;;;;8.60;3.67;;;;;;;19.23;63.77;102499.13;5011152;28;20041;-63
2021/04/01 09:50:36;;;;;;;12.93;3.63;;;;;;;19.22;64.17;102498.28;5027034;28;20033;-62
2021/04/01 09:53:18;;;;;;;9.50;3.65;;;;;;;19.20;63.89;102491.44;5046914;28;20112;-62
2021/04/01 09:55:51;;;;;;;7.40;3.30;;;;;;;19.21;63.81;102488.63;5046416;28;20037;-62
2021/04/01 09:58:23;;;;;;;9.05;3.33;;;;;;;19.21;63.21;102485.97;5037654;28;20032;-64
2021/04/01 10:01:09;;;;;;;9.40;4.18;;;;;;;19.20;63.19;102508.25;5040883;28;20037;-64
2021/04/01 10:03:47;;;;;;;10.40;4.15;;;;;;;19.20;63.22;102502.94;5043297;28;20041;-64
2021/04/01 10:06:26;;;;;;;11.10;3.70;;;;;;;19.20;63.03;102507.41;5048846;28;20106;-63
2021/04/01 10:08:51;;;;;;;10.27;4.22;;;;;;;19.20;63.00;102510.06;5046699;28;20037;-64
2021/04/01 10:11:28;;;;;;;8.98;3.50;;;;;;;19.19;62.60;102519.03;5048206;28;20059;-64
2021/04/01 10:14:06;;;;;;;15.63;3.92;;;;;;;19.18;62.77;102517.38;5047732;28;20092;-65
2021/04/01 10:16:32;;;;;;;7.95;3.20;;;;;;;19.19;62.93;102519.88;5049099;28;20364;-65
2021/04/01 10:18:59;;;;;;;8.45;3.45;;;;;;;19.19;62.76;102525.19;5025127;28;20549;-64
2021/04/01 10:21:25;;;;;;;7.60;3.50;;;;;;;19.19;62.43;102525.19;5047015;28;20057;-64
2021/04/01 10:24:04;;;;;;;11.68;4.15;;;;;;;19.17;62.02;102521.88;5046001;28;20178;-64
2021/04/01 10:26:41;;;;;;;11.85;4.50;;;;;;;19.15;61.62;102529.16;5028540;28;20494;-64
2021/04/01 10:31:46;;;;;;;9.80;4.22;;;;;;;19.09;61.19;102535.06;5043690;28;20037;-64
2021/04/01 10:34:43;;;;;;;10.85;5.40;;;;;;;19.05;60.76;102534.53;5049614;28;20104;-64
2021/04/01 10:37:12;;;;;;;16.98;5.68;;;;;;;19.06;60.90;102536.22;5025954;28;20768;-64
2021/04/01 10:39:39;;;;;;;13.50;5.57;;;;;;;19.05;60.65;102533.72;5043037;28;20087;-64
2021/04/01 10:42:08;;;;;;;16.10;6.28;;;;;;;19.03;60.45;102535.69;5042669;28;20044;-64
2021/04/01 10:44:34;;;;;;;16.00;5.82;;;;;;;19.00;60.16;102536.84;5047896;28;20087;-64
2021/04/01 10:47:02;;;;;;;22.25;5.90;;;;;;;19.00;60.25;102542.16;5042647;28;20040;-64
2021/04/01 10:49:33;;;;;;;16.30;6.57;;;;;;;18.98;60.04;102544.13;5030047;28;20334;-64
2021/04/01 10:52:01;;;;;;;14.75;6.43;;;;;;;18.98;60.35;102543.28;5030109;28;20042;-64
2021/04/01 10:54:38;;;;;;;20.63;6.43;;;;;;;18.95;60.14;102549.75;5033755;28;20024;-64
2021/04/01 10:57:06;;;;;;;19.67;6.80;;;;;;;18.96;60.22;102555.91;5028041;28;20040;-64
2021/04/01 10:59:38;;;;;;;12.75;5.50;;;;;;;18.95;60.04;102565.72;5042472;28;20064;-64
2021/04/01 11:02:17;;;;;;;16.35;5.72;;;;;;;18.91;60.00;102561.66;5029067;28;20100;-64
2021/04/01 11:04:46;;;;;;;15.52;5.95;;;;;;;18.91;59.78;102545.69;5046004;28;20032;-64
2021/04/01 11:07:13;;;;;;;19.38;6.22;;;;;;;18.90;59.74;102556.50;5040989;28;20027;-64
2021/04/01 11:09:44;;;;;;;19.58;6.00;;;;;;;18.89;59.77;102560.13;5029823;28;20041;-64
2021/04/01 11:12:20;;;;;;;16.13;5.70;;;;;;;18.86;59.51;102558.63;5045618;28;20124;-63
2021/04/01 11:15:02;;;;;;;17.52;5.60;;;;;;;18.83;59.02;102570.41;5030620;28;20113;-64
2021/04/01 11:17:31;;;;;;;14.20;5.55;;;;;;;18.84;59.09;102564.09;5028952;28;20472;-64
2021/04/01 11:19:59;;;;;;;16.25;6.43;;;;;;;18.84;59.02;102563.25;5038187;28;20046;-64
2021/04/01 11:22:25;;;;;;;15.45;5.45;;;;;;;18.82;58.83;102562.56;5024897;28;20110;-64
2021/04/01 11:24:51;;;;;;;21.38;5.70;;;;;;;18.80;58.98;102564.53;5042380;28;20511;-64
2021/04/01 11:27:19;;;;;;;13.68;5.15;;;;;;;18.80;58.54;102561.88;5029490;28;20029;-63
2021/04/01 11:29:56;;;;;;;11.60;4.95;;;;;;;18.78;58.38;102571.84;5044630;28;20041;-64
2021/04/01 11:32:26;;;;;;;14.45;6.32;;;;;;;18.75;58.24;102570.28;5046618;28;20029;-65
2021/04/01 11:34:58;;;;;;;12.85;5.68;;;;;;;18.72;58.08;102570.59;5025190;28;20086;-65
2021/04/01 11:37:33;;;;;;;12.90;6.38;;;;;;;18.68;57.63;102571.03;5037855;28;20033;-66
2021/04/01 11:40:06;;;;;;;11.65;7.13;;;;;;;18.61;57.36;102569.91;5037046;28;20163;-65
2021/04/01 11:42:32;;;;;;;14.55;6.55;;;;;;;18.54;57.08;102562.53;5021451;28;20079;-64
2021/04/01 11:45:08;;;;;;;26.23;6.50;;;;;;;18.50;56.67;102566.47;5038431;28;20631;-64
2021/04/01 11:47:39;;;;;;;13.85;6.97;;;;;;;18.44;56.39;102568.88;5026056;28;20056;-65
2021/04/01 11:50:06;;;;;;;16.80;6.95;;;;;;;18.39;56.11;102565.81;5047112;28;20118;-64
2021/04/01 11:52:32;;;;;;;14.38;6.97;;;;;;;18.33;55.82;102563.75;5016179;28;20472;-64
2021/04/01 11:55:09;;;;;;;17.77;7.18;;;;;;;18.26;55.57;102568.81;5036902;28;20532;-64
2021/04/01 11:57:35;;;;;;;13.73;7.63;;;;;;;18.23;55.34;102574.41;5022464;28;20112;-64
2021/04/01 12:00:17;;;;;;;15.32;8.07;;;;;;;18.19;54.98;102584.50;5018662;28;20128;-64
2021/04/01 12:05:27;;;;;;;22.25;10.43;;;;;;;18.15;55.15;102563.69;5042691;28;20047;-64
2021/04/01 12:07:53;;;;;;;19.02;8.40;;;;;;;18.12;54.94;102574.56;5047183;28;20130;-65
2021/04/01 12:10:18;;;;;;;16.20;8.82;;;;;;;18.09;54.96;102570.38;5043285;28;20449;-64
2021/04/01 12:12:44;;;;;;;18.52;8.85;;;;;;;18.08;54.68;102576.69;5047256;28;20043;-64
2021/04/01 12:15:10;;;;;;;14.35;7.57;;;;;;;18.07;54.77;102577.66;5020990;28;20076;-64
2021/04/01 12:17:41;;;;;;;79.32;9.95;;;;;;;18.06;54.77;102583.13;5027326;28;20037;-64
2021/04/01 12:20:14;;;;;;;60.45;9.77;;;;;;;18.06;54.99;102577.81;5046823;28;20075;-67
2021/04/01 12:22:44;;;;;;;30.90;7.75;;;;;;;18.06;55.09;102577.81;5035918;28;20040;-63
2021/04/01 12:25:13;;;;;;;14.05;6.82;;;;;;;18.03;54.89;102580.75;5047004;28;20468;-63
2021/04/01 12:27:39;;;;;;;56.75;9.68;;;;;;;18.02;54.95;102581.75;5035421;28;20036;-66
2021/04/01 12:30:10;;;;;;;20.63;7.13;;;;;;;18.01;55.32;102582.72;5044250;28;20039;-65
2021/04/01 12:32:37;;;;;;;17.17;6.90;;;;;;;18.03;55.21;102581.59;5026748;28;20640;-65
2021/04/01 12:35:12;;;;;;;13.50;6.53;;;;;;;18.05;55.51;102576.16;5040703;28;20045;-64
2021/04/01 12:37:38;;;;;;;;;;;;;;;18.04;55.60;102579.78;5037401;28;20041;-65
2021/04/01 12:40:12;;;;;;;10.88;5.78;;;;;;;18.08;55.24;102582.00;5042511;28;19999;-64
2021/04/01 12:42:38;;;;;;;13.30;6.00;;;;;;;18.13;55.55;102586.88;5044066;28;20159;-65
2021/04/01 12:45:17;;;;;;;13.55;7.10;;;;;;;18.12;55.24;102585.19;5044148;28;20021;-64
2021/04/01 12:47:43;;;;;;;11.73;6.00;;;;;;;18.16;55.43;102592.75;5014848;28;20471;-64
2021/04/01 12:50:10;;;;;;;13.15;5.90;;;;;;;18.16;55.27;102595.41;5026109;28;20247;-66
2021/04/01 12:52:46;;;;;;;9.73;5.65;;;;;;;18.18;55.60;102600.56;5045642;28;20488;-66
2021/04/01 12:55:25;;;;;;;12.50;5.95;;;;;;;18.21;55.78;102595.81;5047144;28;20024;-66
2021/04/01 12:57:50;;;;;;;13.65;7.28;;;;;;;18.23;55.97;102601.81;5038498;28;20036;-66
2021/04/01 13:00:26;;;;;;;14.05;6.50;;;;;;;18.23;56.03;102606.28;5025326;28;20037;-66
2021/04/01 13:02:52;;;;;;;10.65;6.10;;;;;;;18.26;56.33;102606.00;5040428;28;20052;-66
2021/04/01 13:05:19;;;;;;;14.35;6.25;;;;;;;18.29;56.79;102612.81;5027135;28;20467;-66
2021/04/01 13:08:07;;;;;;;13.63;6.00;;;;;;;18.29;56.58;102608.34;5044369;28;20046;-66
2021/04/01 13:10:41;;;;;;;12.88;5.93;;;;;;;18.30;56.92;102619.81;5035486;28;20037;-66
2021/04/01 13:13:08;;;;;;;13.55;5.90;;;;;;;18.30;57.02;102615.34;5027572;28;20037;-66
2021/04/01 13:15:34;;;;;;;11.30;6.18;;;;;;;18.30;56.91;102612.69;5020593;28;20049;-66